Mammoth Spring, Arkansas
Current Conditions -  °F | °C
As of 3:53 AM on Saturday 25 Oct 2014 (Local Time) from KUNO Reporting Station
Clear Clear  
Wind Chill: 58°   Ceiling: Unl
Heat Index: 58°   Visibility: 7mi
Dew Point: 56°   Wind: 7mph
Humidity: 93%   Direction: 250°WSW
Pressure: 30.06"   Gusts: NA
Location:  36.5°N, 91.54°W
Report Text: KUNO 250853Z AUTO 25006KT 7SM CLR 14/13 A3006 RMK AO2 SLP170 T01440133 58002
Loading
Personal Weather Stations






























Interactive Weather Map
Tropical Storm Tracking
New forecast layout! Learn more

10-Day Weather Forecast

Advertisements
Track Severe Weather on mobile